Airfield :
LOGIN :

Register | Disclaimer

   EN    FR    IT 

 










Legend :    VFR   Marginal VFR   IFR   Intensive IFR   Very Intensive IFR
Visi :
Ceiling :
>= 8 km
>= 3000ft
5 to 8 km
1000 to 3000 ft
1500m to 5 km
500 to 1000 ft
800 to 1500m
200 to 500 ft
< 800m
< 200 ft
Symbols :   Thunderstorms  Fog  Heavy snow  Heavy precipitations  Wind > 20 kt
SIGMETs :     Misc.  Thunderstorms  Icing  Turbulence  Mountain Waves  Volcanic Ashes






- Airport Elevation : 1910 ft
- IATA code : RDZ


LFCR - Rodez

CURRENT METAR :
  • 252130Z AUTO 22003KT 190V250 CAVOK 11/10 Q1016 BECMG 4000 BR

EXPIRED METARs :
  • 252100Z AUTO 28005KT 9999 FEW022 BKN056 BKN074 11/09 Q1016 BECMG 4000 BR
  • 252030Z AUTO 30006KT 9999 SCT023 BKN076 11/09 Q1016 BECMG 4000 BR
  • 252000Z AUTO 30007KT 9999 BKN024 BKN031 BKN074 12/10 Q1016 TEMPO SCT025TCU
  • 251930Z AUTO 32004KT 280V360 9999 BKN029 OVC034 13/09 Q1016 TEMPO SCT025TCU
  • 251900Z AUTO 33004KT 9999 BKN029 OVC034 13/09 Q1016 TEMPO SCT025TCU

TAF TAF LFCR
Valid from the 25 at 18:00 until the 26 at 18:00 UTC


251700Z 2518/2618 30010KT 9999 SCT025 BKN030
PROB40
TEMPO 2518/2521 -SHRA SCT025TCU
BECMG 2520/2522 VRB03KT
BECMG 2522/2524 4000 BR
TEMPO 2601/2609 2500 BR OVC003
BECMG 2609/2611 9999 NSW BKN012
BECMG 2611/2613 28010KT BKN020



MET'MAP, your aeronautical weather chart ! - Copyright ORBIFLY December 2007 - Disclaimer

ORBIFLY MET'MAP TEAM :

Programming & Development : Alexandra Zaïnal
Original concept : Baudouin d'Aumeries
Technical & hardware support : Manuel Goepfert
Assistance : Marc-Olivier Méhu




SOURCES & CREDITS :

   NOAA